Time,TemperatureF,DewpointF,PressureIn,WindDirection,WindDirectionDegrees,WindSpeedMPH,WindSpeedGustMPH,Humidity,HourlyPrecipIn,Conditions,Clouds,dailyrainin,SoftwareType,DateUTC
2013-01-11 00:00:00,39.1,28.3,30.32,NNE,29,0.0,0.0,65,0.00,,,0.00,WeatherCatV1.10B1784,2013-01-11 05:00:00,
2013-01-11 00:05:00,39.1,28.3,30.31,NNE,29,0.0,0.0,65,0.00,,,0.00,WeatherCatV1.10B1784,2013-01-11 05:05:00,
2013-01-11 00:10:00,39.1,28.7,30.31,NNE,29,0.0,0.0,66,0.00,,,0.00,WeatherCatV1.10B1784,2013-01-11 05:10:00,
2013-01-11 00:15:00,39.1,29.1,30.30,NNE,29,0.0,0.0,67,0.00,,,0.00,WeatherCatV1.10B1784,2013-01-11 05:15:00,
2013-01-11 00:20:00,38.9,29.6,30.30,NNE,29,0.0,0.0,69,0.00,,,0.00,WeatherCatV1.10B1784,2013-01-11 05:20:00,
2013-01-11 00:25:00,38.7,28.7,30.30,NNE,29,0.0,0.0,67,0.00,,,0.00,WeatherCatV1.10B1784,2013-01-11 05:25:00,
2013-01-11 00:30:00,38.8,28.4,30.30,NNE,29,0.0,1.0,66,0.00,,,0.00,WeatherCatV1.10B1784,2013-01-11 05:30:00,
2013-01-11 00:35:00,39.1,28.3,30.30,NNE,28,1.0,2.0,65,0.00,,,0.00,WeatherCatV1.10B1784,2013-01-11 05:35:00,
2013-01-11 00:40:00,39.3,28.5,30.30,NNE,29,0.0,1.0,65,0.00,,,0.00,WeatherCatV1.10B1784,2013-01-11 05:40:00,
2013-01-11 00:45:00,39.2,28.4,30.30,NNE,29,0.0,0.0,65,0.00,,,0.00,WeatherCatV1.10B1784,2013-01-11 05:45:00,
2013-01-11 00:50:00,39.1,28.7,30.30,NNE,29,0.0,0.0,66,0.00,,,0.00,WeatherCatV1.10B1784,2013-01-11 05:50:00,
2013-01-11 00:55:00,39.0,28.6,30.30,NNE,29,0.0,0.0,66,0.00,,,0.00,WeatherCatV1.10B1784,2013-01-11 05:55:00,
2013-01-11 01:00:00,38.8,28.8,30.29,NNE,29,0.0,0.0,67,0.00,,,0.00,WeatherCatV1.10B1784,2013-01-11 06:00:00,
2013-01-11 01:05:00,38.7,28.3,30.29,NNE,28,0.0,0.0,66,0.00,,,0.00,WeatherCatV1.10B1784,2013-01-11 06:05:00,
2013-01-11 01:10:00,38.8,28.1,30.29,NNE,29,0.0,0.0,65,0.00,,,0.00,WeatherCatV1.10B1784,2013-01-11 06:10:00,
2013-01-11 01:15:00,38.7,28.7,30.29,NNE,28,0.0,0.0,67,0.00,,,0.00,WeatherCatV1.10B1784,2013-01-11 06:15:00,
2013-01-11 01:20:00,38.8,28.4,30.28,NNE,28,2.0,2.0,66,0.00,,,0.00,WeatherCatV1.10B1784,2013-01-11 06:20:00,
2013-01-11 01:25:00,39.3,28.5,30.28,NE,39,0.0,1.0,65,0.00,,,0.00,WeatherCatV1.10B1784,2013-01-11 06:25:00,
2013-01-11 01:30:00,39.5,28.3,30.28,NE,39,0.0,0.0,64,0.00,,,0.00,WeatherCatV1.10B1784,2013-01-11 06:30:00,
2013-01-11 01:35:00,39.5,29.8,30.28,NE,39,0.0,0.0,68,0.00,,,0.00,WeatherCatV1.10B1784,2013-01-11 06:35:00,
2013-01-11 01:40:00,39.2,29.5,30.28,NE,39,0.0,0.0,68,0.00,,,0.00,WeatherCatV1.10B1784,2013-01-11 06:40:00,
2013-01-11 01:45:00,39.3,29.3,30.27,NE,39,0.0,0.0,67,0.00,,,0.00,WeatherCatV1.10B1784,2013-01-11 06:45:00,
2013-01-11 01:50:00,39.6,28.8,30.27,NE,39,0.0,0.0,65,0.00,,,0.00,WeatherCatV1.10B1784,2013-01-11 06:50:00,
2013-01-11 01:55:00,39.7,29.3,30.27,NE,39,0.0,0.0,66,0.00,,,0.00,WeatherCatV1.10B1784,2013-01-11 06:55:00,
2013-01-11 02:00:00,39.6,29.6,30.27,NE,39,0.0,0.0,67,0.00,,,0.00,WeatherCatV1.10B1784,2013-01-11 07:00:00,
2013-01-11 02:05:00,39.7,28.9,30.27,NE,39,0.0,0.0,65,0.00,,,0.00,WeatherCatV1.10B1784,2013-01-11 07:05:00,
2013-01-11 02:10:00,40.0,28.8,30.27,East,91,0.0,1.0,64,0.00,,,0.00,WeatherCatV1.10B1784,2013-01-11 07:10:00,
2013-01-11 02:15:00,40.4,28.8,30.26,East,92,0.0,0.0,63,0.00,,,0.00,WeatherCatV1.10B1784,2013-01-11 07:15:00,
2013-01-11 02:20:00,40.7,28.7,30.26,ESE,102,1.0,2.0,62,0.00,,,0.00,WeatherCatV1.10B1784,2013-01-11 07:20:00,
2013-01-11 02:25:00,40.7,28.7,30.26,ESE,102,0.0,1.0,62,0.00,,,0.00,WeatherCatV1.10B1784,2013-01-11 07:25:00,
2013-01-11 02:30:00,40.7,29.1,30.26,ESE,102,0.0,0.0,63,0.00,,,0.00,WeatherCatV1.10B1784,2013-01-11 07:30:00,
2013-01-11 02:35:00,40.6,29.4,30.27,ESE,102,0.0,0.0,64,0.00,,,0.00,WeatherCatV1.10B1784,2013-01-11 07:35:00,
2013-01-11 02:40:00,40.8,29.2,30.27,East,101,0.0,0.0,63,0.00,,,0.00,WeatherCatV1.10B1784,2013-01-11 07:40:00,
2013-01-11 02:45:00,40.9,29.3,30.26,East,98,1.0,1.0,63,0.00,,,0.00,WeatherCatV1.10B1784,2013-01-11 07:45:00,
2013-01-11 02:50:00,40.8,29.2,30.26,East,98,1.0,1.0,63,0.00,,,0.00,WeatherCatV1.10B1784,2013-01-11 07:50:00,
2013-01-11 02:55:00,40.9,29.3,30.26,East,98,0.0,0.0,63,0.00,,,0.00,WeatherCatV1.10B1784,2013-01-11 07:55:00,
2013-01-11 03:00:00,40.9,29.7,30.26,East,99,0.0,0.0,64,0.00,,,0.00,WeatherCatV1.10B1784,2013-01-11 08:00:00,
2013-01-11 03:05:00,40.9,30.1,30.26,East,98,0.0,0.0,65,0.00,,,0.00,WeatherCatV1.10B1784,2013-01-11 08:05:00,
2013-01-11 03:10:00,40.7,29.9,30.26,East,99,0.0,0.0,65,0.00,,,0.00,WeatherCatV1.10B1784,2013-01-11 08:10:00,
2013-01-11 03:15:00,40.6,30.1,30.26,East,98,0.0,0.0,66,0.00,,,0.00,WeatherCatV1.10B1784,2013-01-11 08:15:00,
2013-01-11 03:20:00,40.8,30.3,30.26,East,98,0.0,0.0,66,0.00,,,0.00,WeatherCatV1.10B1784,2013-01-11 08:20:00,
2013-01-11 03:25:00,40.9,30.4,30.26,East,98,0.0,0.0,66,0.00,,,0.00,WeatherCatV1.10B1784,2013-01-11 08:25:00,
2013-01-11 03:30:00,41.0,30.9,30.26,East,98,0.0,0.0,67,0.00,,,0.00,WeatherCatV1.10B1784,2013-01-11 08:30:00,
2013-01-11 03:35:00,41.1,29.9,30.25,East,98,0.0,0.0,64,0.00,,,0.00,WeatherCatV1.10B1784,2013-01-11 08:35:00,
2013-01-11 03:40:00,41.2,30.3,30.25,East,98,0.0,0.0,65,0.00,,,0.00,WeatherCatV1.10B1784,2013-01-11 08:40:00,
2013-01-11 03:45:00,41.1,31.0,30.25,East,100,0.0,0.0,67,0.00,,,0.00,WeatherCatV1.10B1784,2013-01-11 08:45:00,
2013-01-11 03:50:00,41.2,30.7,30.25,SE,126,0.0,2.0,66,0.00,,,0.00,WeatherCatV1.10B1784,2013-01-11 08:50:00,
2013-01-11 03:55:00,41.7,30.4,30.24,ESE,123,1.0,3.0,64,0.00,,,0.00,WeatherCatV1.10B1784,2013-01-11 08:55:00,
2013-01-11 04:00:00,41.7,30.4,30.23,ESE,110,0.0,2.0,64,0.00,,,0.00,WeatherCatV1.10B1784,2013-01-11 09:00:00,
2013-01-11 04:05:00,41.5,30.6,30.23,ESE,103,0.0,1.0,65,0.00,,,0.00,WeatherCatV1.10B1784,2013-01-11 09:05:00,
2013-01-11 04:10:00,41.6,30.7,30.22,SE,128,2.0,2.0,65,0.00,,,0.00,WeatherCatV1.10B1784,2013-01-11 09:10:00,
2013-01-11 04:15:00,42.0,31.1,30.22,ESE,110,0.0,1.0,65,0.00,,,0.00,WeatherCatV1.10B1784,2013-01-11 09:15:00,
2013-01-11 04:20:00,42.2,31.3,30.22,ESE,122,1.0,3.0,65,0.00,,,0.00,WeatherCatV1.10B1784,2013-01-11 09:20:00,
2013-01-11 04:25:00,42.4,31.1,30.22,ESE,114,0.0,1.0,64,0.00,,,0.00,WeatherCatV1.10B1784,2013-01-11 09:25:00,
2013-01-11 04:30:00,42.5,31.2,30.21,ESE,110,0.0,0.0,64,0.00,,,0.00,WeatherCatV1.10B1784,2013-01-11 09:30:00,
2013-01-11 04:35:00,42.7,31.4,30.20,ESE,107,0.0,1.0,64,0.00,,,0.00,WeatherCatV1.10B1784,2013-01-11 09:35:00,
2013-01-11 04:40:00,42.5,31.6,30.20,ESE,108,0.0,1.0,65,0.00,,,0.00,WeatherCatV1.10B1784,2013-01-11 09:40:00,
2013-01-11 04:45:00,42.4,31.5,30.20,East,101,0.0,0.0,65,0.00,,,0.00,WeatherCatV1.10B1784,2013-01-11 09:45:00,
2013-01-11 04:50:00,42.2,31.3,30.19,ESE,102,0.0,0.0,65,0.00,,,0.00,WeatherCatV1.10B1784,2013-01-11 09:50:00,
2013-01-11 04:55:00,42.0,31.5,30.19,SE,146,0.0,1.0,66,0.00,,,0.00,WeatherCatV1.10B1784,2013-01-11 09:55:00,
2013-01-11 05:00:00,41.7,31.6,30.19,SE,131,1.0,1.0,67,0.00,,,0.00,WeatherCatV1.10B1784,2013-01-11 10:00:00,
2013-01-11 05:05:00,41.9,31.8,30.19,ESE,103,1.0,2.0,67,0.00,,,0.00,WeatherCatV1.10B1784,2013-01-11 10:05:00,
2013-01-11 05:10:00,41.9,31.8,30.18,ESE,120,1.0,3.0,67,0.00,,,0.00,WeatherCatV1.10B1784,2013-01-11 10:10:00,
2013-01-11 05:15:00,41.9,31.8,30.18,SE,142,0.0,3.0,67,0.00,,,0.00,WeatherCatV1.10B1784,2013-01-11 10:15:00,
2013-01-11 05:20:00,41.8,31.7,30.19,SE,126,0.0,1.0,67,0.00,,,0.00,WeatherCatV1.10B1784,2013-01-11 10:20:00,
2013-01-11 05:25:00,41.8,32.0,30.19,SE,126,2.0,3.0,68,0.00,,,0.00,WeatherCatV1.10B1784,2013-01-11 10:25:00,
2013-01-11 05:30:00,42.0,31.9,30.19,ESE,110,1.0,2.0,67,0.00,,,0.00,WeatherCatV1.10B1784,2013-01-11 10:30:00,
2013-01-11 05:35:00,42.0,31.9,30.19,ESE,120,1.0,2.0,67,0.00,,,0.00,WeatherCatV1.10B1784,2013-01-11 10:35:00,
2013-01-11 05:40:00,42.0,31.9,30.19,East,98,1.0,1.0,67,0.00,,,0.00,WeatherCatV1.10B1784,2013-01-11 10:40:00,
2013-01-11 05:45:00,41.3,31.5,30.19,ESE,113,0.0,1.0,68,0.00,,,0.00,WeatherCatV1.10B1784,2013-01-11 10:45:00,
2013-01-11 05:50:00,41.1,32.1,30.19,SSW,200,1.0,1.0,70,0.00,,,0.00,WeatherCatV1.10B1784,2013-01-11 10:50:00,
2013-01-11 05:55:00,41.2,32.2,30.18,ESE,113,0.0,0.0,70,0.00,,,0.00,WeatherCatV1.10B1784,2013-01-11 10:55:00,
2013-01-11 06:00:00,40.9,31.9,30.18,ESE,113,0.0,0.0,70,0.00,,,0.00,WeatherCatV1.10B1784,2013-01-11 11:00:00,
2013-01-11 06:05:00,40.6,31.9,30.18,ESE,113,0.0,0.0,71,0.00,,,0.00,WeatherCatV1.10B1784,2013-01-11 11:05:00,
2013-01-11 06:10:00,40.4,32.1,30.18,ESE,113,0.0,0.0,72,0.00,,,0.00,WeatherCatV1.10B1784,2013-01-11 11:10:00,
2013-01-11 06:15:00,40.1,32.2,30.18,ESE,120,0.0,1.0,73,0.00,,,0.00,WeatherCatV1.10B1784,2013-01-11 11:15:00,
2013-01-11 06:20:00,40.5,32.2,30.18,ESE,120,1.0,1.0,72,0.00,,,0.00,WeatherCatV1.10B1784,2013-01-11 11:20:00,
2013-01-11 06:25:00,40.8,32.5,30.18,SSE,148,0.0,0.0,72,0.00,,,0.00,WeatherCatV1.10B1784,2013-01-11 11:25:00,
2013-01-11 06:30:00,41.1,32.4,30.18,ENE,75,1.0,2.0,71,0.00,,,0.00,WeatherCatV1.10B1784,2013-01-11 11:30:00,
2013-01-11 06:35:00,41.4,32.4,30.18,East,99,0.0,1.0,70,0.00,,,0.00,WeatherCatV1.10B1784,2013-01-11 11:35:00,
2013-01-11 06:40:00,41.4,32.4,30.18,SE,125,1.0,3.0,70,0.00,,,0.00,WeatherCatV1.10B1784,2013-01-11 11:40:00,
2013-01-11 06:45:00,41.7,32.3,30.18,ESE,110,1.0,2.0,69,0.00,,,0.00,WeatherCatV1.10B1784,2013-01-11 11:45:00,
2013-01-11 06:50:00,41.9,32.5,30.18,SE,125,1.0,1.0,69,0.00,,,0.00,WeatherCatV1.10B1784,2013-01-11 11:50:00,
2013-01-11 06:55:00,42.2,32.4,30.18,East,90,1.0,3.0,68,0.00,,,0.00,WeatherCatV1.10B1784,2013-01-11 11:55:00,
2013-01-11 07:00:00,42.4,32.6,30.18,East,101,4.0,6.0,68,0.00,,,0.00,WeatherCatV1.10B1784,2013-01-11 12:00:00,
2013-01-11 07:05:00,42.8,32.6,30.17,East,98,1.0,5.0,67,0.00,,,0.00,WeatherCatV1.10B1784,2013-01-11 12:05:00,
2013-01-11 07:10:00,42.7,32.9,30.17,ESE,105,3.0,4.0,68,0.00,,,0.00,WeatherCatV1.10B1784,2013-01-11 12:10:00,
2013-01-11 07:15:00,42.9,33.4,30.17,ESE,112,1.0,3.0,69,0.00,,,0.00,WeatherCatV1.10B1784,2013-01-11 12:15:00,
2013-01-11 07:20:00,42.7,33.6,30.17,SSE,148,2.0,5.0,70,0.00,,,0.00,WeatherCatV1.10B1784,2013-01-11 12:20:00,
2013-01-11 07:25:00,42.6,33.9,30.18,SE,130,2.0,3.0,71,0.00,,,0.00,WeatherCatV1.10B1784,2013-01-11 12:25:00,
2013-01-11 07:30:00,42.7,34.3,30.17,SE,128,1.0,3.0,72,0.00,,,0.00,WeatherCatV1.10B1784,2013-01-11 12:30:00,
2013-01-11 07:35:00,42.5,34.5,30.16,East,84,2.0,2.0,73,0.00,,,0.00,WeatherCatV1.10B1784,2013-01-11 12:35:00,
2013-01-11 07:40:00,42.4,34.7,30.16,East,84,0.0,4.0,74,0.00,,,0.00,WeatherCatV1.10B1784,2013-01-11 12:40:00,
2013-01-11 07:45:00,42.2,34.9,30.16,ESE,113,2.0,4.0,75,0.00,,,0.00,WeatherCatV1.10B1784,2013-01-11 12:45:00,
2013-01-11 07:50:00,42.2,34.9,30.15,South,191,1.0,2.0,75,0.00,,,0.00,WeatherCatV1.10B1784,2013-01-11 12:50:00,
2013-01-11 07:55:00,42.2,35.2,30.15,ESE,108,3.0,3.0,76,0.00,,,0.00,WeatherCatV1.10B1784,2013-01-11 12:55:00,
2013-01-11 08:00:00,42.4,35.4,30.15,ESE,103,3.0,4.0,76,0.00,,,0.00,WeatherCatV1.10B1784,2013-01-11 13:00:00,
2013-01-11 08:05:00,42.4,36.0,30.14,ESE,115,3.0,6.0,78,0.00,,,0.00,WeatherCatV1.10B1784,2013-01-11 13:05:00,
2013-01-11 08:10:00,42.5,36.1,30.14,SE,132,4.0,4.0,78,0.00,,,0.00,WeatherCatV1.10B1784,2013-01-11 13:10:00,
2013-01-11 08:15:00,42.6,36.2,30.13,ESE,112,1.0,2.0,78,0.00,,,0.00,WeatherCatV1.10B1784,2013-01-11 13:15:00,
2013-01-11 08:20:00,42.9,36.8,30.13,ENE,72,1.0,4.0,79,0.00,,,0.00,WeatherCatV1.10B1784,2013-01-11 13:20:00,
2013-01-11 08:25:00,43.2,36.8,30.13,ESE,120,1.0,3.0,78,0.00,,,0.00,WeatherCatV1.10B1784,2013-01-11 13:25:00,
2013-01-11 08:30:00,43.4,37.3,30.13,East,84,1.0,4.0,79,0.00,,,0.00,WeatherCatV1.10B1784,2013-01-11 13:30:00,
2013-01-11 08:35:00,43.4,37.0,30.13,NE,56,0.0,0.0,78,0.00,,,0.00,WeatherCatV1.10B1784,2013-01-11 13:35:00,
2013-01-11 08:40:00,43.3,36.9,30.13,NE,53,1.0,1.0,78,0.00,,,0.00,WeatherCatV1.10B1784,2013-01-11 13:40:00,
2013-01-11 08:45:00,43.2,37.1,30.13,NNE,32,1.0,2.0,79,0.00,,,0.00,WeatherCatV1.10B1784,2013-01-11 13:45:00,
2013-01-11 08:50:00,42.9,36.8,30.12,ESE,105,0.0,1.0,79,0.00,,,0.00,WeatherCatV1.10B1784,2013-01-11 13:50:00,
2013-01-11 08:55:00,42.5,36.8,30.12,ESE,120,1.0,1.0,80,0.00,,,0.00,WeatherCatV1.10B1784,2013-01-11 13:55:00,
2013-01-11 09:00:00,42.2,36.8,30.12,SE,132,0.0,0.0,81,0.00,,,0.00,WeatherCatV1.10B1784,2013-01-11 14:00:00,
2013-01-11 09:05:00,41.9,36.8,30.12,South,183,0.0,1.0,82,0.00,,,0.00,WeatherCatV1.10B1784,2013-01-11 14:05:00,
2013-01-11 09:10:00,42.3,37.2,30.11,ESE,103,1.0,1.0,82,0.00,,,0.00,WeatherCatV1.10B1784,2013-01-11 14:10:00,
2013-01-11 09:15:00,42.8,37.4,30.11,ESE,113,0.0,0.0,81,0.00,,,0.00,WeatherCatV1.10B1784,2013-01-11 14:15:00,
2013-01-11 09:20:00,43.3,38.2,30.11,SE,131,0.0,1.0,82,0.00,,,0.00,WeatherCatV1.10B1784,2013-01-11 14:20:00,
2013-01-11 09:25:00,43.8,38.4,30.11,SE,135,0.0,3.0,81,0.00,,,0.00,WeatherCatV1.10B1784,2013-01-11 14:25:00,
2013-01-11 09:30:00,44.0,38.5,30.10,ENE,78,2.0,2.0,81,0.00,,,0.00,WeatherCatV1.10B1784,2013-01-11 14:30:00,
2013-01-11 09:35:00,44.2,38.7,30.10,East,89,2.0,4.0,81,0.00,,,0.00,WeatherCatV1.10B1784,2013-01-11 14:35:00,
2013-01-11 09:40:00,44.2,38.7,30.10,ESE,103,1.0,2.0,81,0.00,,,0.00,WeatherCatV1.10B1784,2013-01-11 14:40:00,
2013-01-11 09:45:00,44.2,38.7,30.09,SE,125,2.0,3.0,81,0.00,,,0.00,WeatherCatV1.10B1784,2013-01-11 14:45:00,
2013-01-11 09:50:00,44.3,39.2,30.09,SE,135,2.0,4.0,82,0.00,,,0.00,WeatherCatV1.10B1784,2013-01-11 14:50:00,
2013-01-11 09:55:00,44.6,39.5,30.09,ESE,122,1.0,3.0,82,0.00,,,0.00,WeatherCatV1.10B1784,2013-01-11 14:55:00,
2013-01-11 10:00:00,44.8,39.3,30.09,ESE,119,2.0,3.0,81,0.00,,,0.00,WeatherCatV1.10B1784,2013-01-11 15:00:00,
2013-01-11 10:05:00,44.9,39.7,30.08,ESE,106,3.0,4.0,82,0.00,,,0.00,WeatherCatV1.10B1784,2013-01-11 15:05:00,
2013-01-11 10:10:00,45.0,39.8,30.08,SE,146,0.0,0.0,82,0.00,,,0.01,WeatherCatV1.10B1784,2013-01-11 15:10:00,
2013-01-11 10:15:00,44.9,40.1,30.08,SE,126,0.0,1.0,83,0.00,,,0.01,WeatherCatV1.10B1784,2013-01-11 15:15:00,
2013-01-11 10:20:00,44.9,40.4,30.08,ESE,122,0.0,1.0,84,0.00,,,0.01,WeatherCatV1.10B1784,2013-01-11 15:20:00,
2013-01-11 10:25:00,44.9,40.4,30.07,ESE,123,0.0,1.0,84,0.00,,,0.01,WeatherCatV1.10B1784,2013-01-11 15:25:00,
2013-01-11 10:30:00,44.8,40.3,30.07,ESE,122,0.0,0.0,84,0.00,,,0.01,WeatherCatV1.10B1784,2013-01-11 15:30:00,
2013-01-11 10:35:00,44.7,40.5,30.06,ESE,110,0.0,1.0,85,0.00,,,0.01,WeatherCatV1.10B1784,2013-01-11 15:35:00,
2013-01-11 10:40:00,44.7,40.5,30.06,ESE,110,0.0,0.0,85,0.00,,,0.01,WeatherCatV1.10B1784,2013-01-11 15:40:00,
2013-01-11 10:45:00,44.7,40.5,30.06,ESE,110,0.0,0.0,85,0.00,,,0.01,WeatherCatV1.10B1784,2013-01-11 15:45:00,
2013-01-11 10:50:00,44.8,40.9,30.06,ESE,110,0.0,0.0,86,0.00,,,0.02,WeatherCatV1.10B1784,2013-01-11 15:50:00,
2013-01-11 10:55:00,44.5,40.6,30.06,ESE,113,0.0,1.0,86,0.15,,,0.04,WeatherCatV1.10B1784,2013-01-11 15:55:00,
2013-01-11 11:00:00,44.1,40.8,30.06,West,260,0.0,0.0,88,0.21,,,0.05,WeatherCatV1.10B1784,2013-01-11 16:00:00,
2013-01-11 11:05:00,43.7,40.7,30.05,ESE,110,0.0,0.0,89,0.08,,,0.05,WeatherCatV1.10B1784,2013-01-11 16:05:00,
2013-01-11 11:10:00,43.3,40.6,30.04,NE,35,1.0,3.0,90,0.21,,,0.07,WeatherCatV1.10B1784,2013-01-11 16:10:00,
2013-01-11 11:15:00,43.1,40.9,30.04,NNE,33,0.0,1.0,92,0.08,,,0.07,WeatherCatV1.10B1784,2013-01-11 16:15:00,
2013-01-11 11:20:00,43.0,40.8,30.04,WSW,250,2.0,2.0,92,0.05,,,0.07,WeatherCatV1.10B1784,2013-01-11 16:20:00,
2013-01-11 11:25:00,42.9,41.0,30.04,West,273,0.0,0.0,93,0.23,,,0.09,WeatherCatV1.10B1784,2013-01-11 16:25:00,
2013-01-11 11:30:00,43.0,41.1,30.03,NW,321,1.0,1.0,93,0.17,,,0.11,WeatherCatV1.10B1784,2013-01-11 16:30:00,
2013-01-11 11:35:00,43.0,41.1,30.02,NE,40,2.0,2.0,93,0.17,,,0.12,WeatherCatV1.10B1784,2013-01-11 16:35:00,
2013-01-11 11:40:00,42.9,41.3,30.01,NE,56,0.0,1.0,94,0.09,,,0.13,WeatherCatV1.10B1784,2013-01-11 16:40:00,
2013-01-11 11:45:00,43.0,41.4,30.00,NE,56,0.0,1.0,94,0.09,,,0.13,WeatherCatV1.10B1784,2013-01-11 16:45:00,
2013-01-11 11:50:00,43.0,41.4,30.00,SSW,205,1.0,1.0,94,0.05,,,0.13,WeatherCatV1.10B1784,2013-01-11 16:50:00,
2013-01-11 11:55:00,43.1,41.5,30.00,SSW,195,0.0,0.0,94,0.04,,,0.13,WeatherCatV1.10B1784,2013-01-11 16:55:00,
2013-01-11 12:00:00,43.2,41.9,30.00,West,273,0.0,0.0,95,0.00,,,0.14,WeatherCatV1.10B1784,2013-01-11 17:00:00,
2013-01-11 12:05:00,43.2,41.9,30.00,NW,312,0.0,0.0,95,0.18,,,0.15,WeatherCatV1.10B1784,2013-01-11 17:05:00,
2013-01-11 12:10:00,43.4,42.1,30.00,NNW,328,1.0,1.0,95,0.08,,,0.15,WeatherCatV1.10B1784,2013-01-11 17:10:00,
2013-01-11 12:15:00,43.5,42.2,30.00,ESE,120,0.0,1.0,95,0.15,,,0.17,WeatherCatV1.10B1784,2013-01-11 17:15:00,
2013-01-11 12:20:00,43.5,42.2,30.01,WNW,284,0.0,2.0,95,0.14,,,0.18,WeatherCatV1.10B1784,2013-01-11 17:20:00,
2013-01-11 12:25:00,43.5,42.2,30.01,WNW,284,1.0,2.0,95,0.48,,,0.21,WeatherCatV1.10B1784,2013-01-11 17:25:00,
2013-01-11 12:30:00,43.6,42.3,30.02,WSW,255,2.0,2.0,95,0.28,,,0.23,WeatherCatV1.10B1784,2013-01-11 17:30:00,
2013-01-11 12:35:00,43.5,42.2,30.01,West,278,0.0,0.0,95,0.16,,,0.24,WeatherCatV1.10B1784,2013-01-11 17:35:00,
2013-01-11 12:40:00,43.5,42.2,30.01,WNW,287,0.0,0.0,95,0.07,,,0.24,WeatherCatV1.10B1784,2013-01-11 17:40:00,
2013-01-11 12:45:00,43.5,42.2,30.01,WNW,292,0.0,1.0,95,0.04,,,0.24,WeatherCatV1.10B1784,2013-01-11 17:45:00,
2013-01-11 12:50:00,43.6,42.3,30.01,North,8,0.0,1.0,95,0.00,,,0.24,WeatherCatV1.10B1784,2013-01-11 17:50:00,
2013-01-11 12:55:00,43.7,42.4,30.01,North,8,1.0,1.0,95,0.00,,,0.24,WeatherCatV1.10B1784,2013-01-11 17:55:00,
2013-01-11 13:00:00,43.7,42.4,30.00,SSW,202,1.0,1.0,95,0.00,,,0.24,WeatherCatV1.10B1784,2013-01-11 18:00:00,
2013-01-11 13:05:00,43.8,42.5,30.00,SSE,152,0.0,0.0,95,0.00,,,0.24,WeatherCatV1.10B1784,2013-01-11 18:05:00,
2013-01-11 13:10:00,44.0,42.9,30.00,North,6,2.0,2.0,96,0.00,,,0.24,WeatherCatV1.10B1784,2013-01-11 18:10:00,
2013-01-11 13:15:00,44.1,42.8,30.00,ENE,68,0.0,2.0,95,0.00,,,0.24,WeatherCatV1.10B1784,2013-01-11 18:15:00,
2013-01-11 13:20:00,44.2,42.9,30.00,SE,135,1.0,1.0,95,0.00,,,0.24,WeatherCatV1.10B1784,2013-01-11 18:20:00,
2013-01-11 13:25:00,44.3,43.0,30.00,SE,135,0.0,0.0,95,0.00,,,0.24,WeatherCatV1.10B1784,2013-01-11 18:25:00,
2013-01-11 13:27:00,44.3,43.0,30.00,SE,125,1.0,1.0,95,0.00,,,0.24,WeatherCatV1.10B1784,2013-01-11 18:27:00,
2013-01-11 13:32:00,44.3,43.0,29.99,ESE,123,0.0,1.0,95,0.00,,,0.24,WeatherCatV1.10B1784,2013-01-11 18:32:00,
2013-01-11 13:37:00,44.3,43.0,30.00,SE,127,1.0,1.0,95,0.00,,,0.24,WeatherCatV1.10B1784,2013-01-11 18:37:00,
2013-01-11 13:42:00,44.5,43.4,30.00,SE,142,2.0,2.0,96,0.00,,,0.24,WeatherCatV1.10B1784,2013-01-11 18:42:00,
2013-01-11 13:47:00,44.7,43.6,29.99,SE,132,1.0,3.0,96,0.00,,,0.25,WeatherCatV1.10B1784,2013-01-11 18:47:00,
2013-01-11 13:52:00,44.9,43.8,29.99,SE,134,1.0,1.0,96,0.00,,,0.25,WeatherCatV1.10B1784,2013-01-11 18:52:00,
2013-01-11 13:57:00,45.0,43.9,29.98,SE,134,2.0,4.0,96,0.00,,,0.25,WeatherCatV1.10B1784,2013-01-11 18:57:00,
2013-01-11 14:02:00,45.1,43.8,29.98,SE,132,1.0,3.0,95,0.00,,,0.25,WeatherCatV1.10B1784,2013-01-11 19:02:00,
2013-01-11 14:07:00,45.3,44.0,29.98,SSE,149,0.0,1.0,95,0.00,,,0.25,WeatherCatV1.10B1784,2013-01-11 19:07:00,
2013-01-11 14:12:00,45.4,44.1,29.98,South,176,0.0,1.0,95,0.00,,,0.25,WeatherCatV1.10B1784,2013-01-11 19:12:00,
2013-01-11 14:17:00,45.5,44.2,29.99,SSE,165,2.0,3.0,95,0.00,,,0.25,WeatherCatV1.10B1784,2013-01-11 19:17:00,
2013-01-11 14:22:00,45.6,44.3,29.99,South,179,1.0,2.0,95,0.00,,,0.25,WeatherCatV1.10B1784,2013-01-11 19:22:00,
2013-01-11 14:27:00,45.7,44.3,29.99,SSW,202,0.0,2.0,95,0.00,,,0.25,WeatherCatV1.10B1784,2013-01-11 19:27:00,
2013-01-11 14:32:00,45.9,44.5,29.99,SE,143,1.0,2.0,95,0.00,,,0.26,WeatherCatV1.10B1784,2013-01-11 19:32:00,
2013-01-11 14:37:00,46.0,44.6,29.99,SE,126,1.0,2.0,95,0.09,,,0.27,WeatherCatV1.10B1784,2013-01-11 19:37:00,
2013-01-11 14:42:00,45.9,44.5,29.98,SE,129,1.0,2.0,95,0.14,,,0.28,WeatherCatV1.10B1784,2013-01-11 19:42:00,
2013-01-11 14:47:00,45.5,43.9,29.97,East,99,1.0,2.0,94,0.09,,,0.29,WeatherCatV1.10B1784,2013-01-11 19:47:00,
2013-01-11 14:52:00,45.6,44.3,29.97,East,98,1.0,2.0,95,0.08,,,0.29,WeatherCatV1.10B1784,2013-01-11 19:52:00,
2013-01-11 14:57:00,45.9,44.8,29.97,ESE,117,1.0,3.0,96,0.05,,,0.29,WeatherCatV1.10B1784,2013-01-11 19:57:00,
2013-01-11 15:02:00,47.3,46.5,29.97,ESE,117,2.0,2.0,97,0.00,,,0.29,WeatherCatV1.10B1784,2013-01-11 20:02:00,
2013-01-11 15:07:00,47.9,47.1,29.97,SE,145,1.0,3.0,97,0.00,,,0.29,WeatherCatV1.10B1784,2013-01-11 20:07:00,
2013-01-11 15:12:00,48.7,47.9,29.97,South,190,3.0,4.0,97,0.00,,,0.29,WeatherCatV1.10B1784,2013-01-11 20:12:00,
2013-01-11 15:17:00,49.4,48.6,29.96,ESE,120,2.0,3.0,97,0.00,,,0.29,WeatherCatV1.10B1784,2013-01-11 20:17:00,
2013-01-11 15:22:00,49.7,48.9,29.96,East,100,1.0,4.0,97,0.00,,,0.29,WeatherCatV1.10B1784,2013-01-11 20:22:00,
2013-01-11 15:27:00,49.8,48.7,29.97,SW,232,1.0,2.0,96,0.00,,,0.29,WeatherCatV1.10B1784,2013-01-11 20:27:00,
2013-01-11 15:32:00,49.9,48.8,29.97,South,181,4.0,8.0,96,0.00,,,0.29,WeatherCatV1.10B1784,2013-01-11 20:32:00,
2013-01-11 15:37:00,50.4,49.6,29.97,SSW,194,4.0,5.0,97,0.00,,,0.29,WeatherCatV1.10B1784,2013-01-11 20:37:00,
2013-01-11 15:42:00,50.7,49.6,29.97,South,187,3.0,4.0,96,0.00,,,0.30,WeatherCatV1.10B1784,2013-01-11 20:42:00,
2013-01-11 15:47:00,50.9,49.8,29.97,WSW,252,3.0,8.0,96,0.00,,,0.30,WeatherCatV1.10B1784,2013-01-11 20:47:00,
2013-01-11 15:52:00,51.1,50.0,29.97,SSW,207,2.0,4.0,96,0.00,,,0.30,WeatherCatV1.10B1784,2013-01-11 20:52:00,
2013-01-11 15:57:00,51.6,50.5,29.97,South,187,2.0,5.0,96,0.00,,,0.30,WeatherCatV1.10B1784,2013-01-11 20:57:00,
2013-01-11 16:02:00,51.8,50.7,29.97,SW,215,1.0,5.0,96,0.00,,,0.30,WeatherCatV1.10B1784,2013-01-11 21:02:00,
2013-01-11 16:07:00,51.9,50.8,29.97,SSW,207,4.0,5.0,96,0.00,,,0.30,WeatherCatV1.10B1784,2013-01-11 21:07:00,
2013-01-11 16:12:00,52.3,51.2,29.97,SW,225,1.0,11.0,96,0.00,,,0.30,WeatherCatV1.10B1784,2013-01-11 21:12:00,
2013-01-11 16:17:00,52.4,51.3,29.98,SW,221,3.0,5.0,96,0.00,,,0.30,WeatherCatV1.10B1784,2013-01-11 21:17:00,
2013-01-11 16:22:00,52.7,51.3,29.98,West,270,3.0,4.0,95,0.00,,,0.30,WeatherCatV1.10B1784,2013-01-11 21:22:00,
2013-01-11 16:27:00,52.6,51.2,29.98,SW,235,2.0,4.0,95,0.00,,,0.30,WeatherCatV1.10B1784,2013-01-11 21:27:00,
2013-01-11 16:32:00,52.6,51.2,29.98,SW,219,4.0,4.0,95,0.00,,,0.30,WeatherCatV1.10B1784,2013-01-11 21:32:00,
2013-01-11 16:37:00,52.9,51.5,29.98,SSW,201,2.0,4.0,95,0.00,,,0.30,WeatherCatV1.10B1784,2013-01-11 21:37:00,
2013-01-11 16:42:00,53.0,51.3,29.98,SW,236,1.0,3.0,94,0.00,,,0.30,WeatherCatV1.10B1784,2013-01-11 21:42:00,
2013-01-11 16:47:00,52.6,50.9,29.98,WSW,257,2.0,2.0,94,0.00,,,0.30,WeatherCatV1.10B1784,2013-01-11 21:47:00,
2013-01-11 16:52:00,52.2,50.5,29.98,West,259,2.0,4.0,94,0.00,,,0.30,WeatherCatV1.10B1784,2013-01-11 21:52:00,
2013-01-11 16:57:00,51.7,49.7,29.98,West,262,2.0,2.0,93,0.00,,,0.30,WeatherCatV1.10B1784,2013-01-11 21:57:00,
2013-01-11 17:02:00,51.1,49.4,29.98,West,263,1.0,3.0,94,0.00,,,0.30,WeatherCatV1.10B1784,2013-01-11 22:02:00,
2013-01-11 17:07:00,51.0,49.6,29.98,WNW,287,2.0,2.0,95,0.00,,,0.30,WeatherCatV1.10B1784,2013-01-11 22:07:00,
2013-01-11 17:12:00,50.9,49.5,29.98,West,277,1.0,1.0,95,0.00,,,0.30,WeatherCatV1.10B1784,2013-01-11 22:12:00,
2013-01-11 17:17:00,50.2,48.8,29.98,WSW,245,0.0,1.0,95,0.00,,,0.30,WeatherCatV1.10B1784,2013-01-11 22:17:00,
2013-01-11 17:22:00,49.2,47.8,29.98,West,276,0.0,1.0,95,0.00,,,0.30,WeatherCatV1.10B1784,2013-01-11 22:22:00,
2013-01-11 17:27:00,48.0,46.1,29.97,WSW,245,1.0,2.0,93,0.00,,,0.30,WeatherCatV1.10B1784,2013-01-11 22:27:00,
2013-01-11 17:32:00,48.2,47.1,29.98,West,259,1.0,3.0,96,0.00,,,0.30,WeatherCatV1.10B1784,2013-01-11 22:32:00,
2013-01-11 17:37:00,49.2,48.4,29.98,West,274,0.0,4.0,97,0.00,,,0.30,WeatherCatV1.10B1784,2013-01-11 22:37:00,
2013-01-11 17:42:00,48.7,47.6,29.98,WSW,246,1.0,2.0,96,0.00,,,0.30,WeatherCatV1.10B1784,2013-01-11 22:42:00,
2013-01-11 17:47:00,48.0,46.6,29.98,West,271,1.0,1.0,95,0.00,,,0.30,WeatherCatV1.10B1784,2013-01-11 22:47:00,
2013-01-11 17:52:00,47.3,45.9,29.98,WSW,258,2.0,2.0,95,0.00,,,0.30,WeatherCatV1.10B1784,2013-01-11 22:52:00,
2013-01-11 17:57:00,47.0,45.9,29.99,WSW,245,2.0,2.0,96,0.00,,,0.30,WeatherCatV1.10B1784,2013-01-11 22:57:00,
2013-01-11 18:02:00,47.2,46.4,29.98,West,272,1.0,1.0,97,0.00,,,0.30,WeatherCatV1.10B1784,2013-01-11 23:02:00,
2013-01-11 18:07:00,47.7,46.9,29.99,WSW,250,1.0,2.0,97,0.00,,,0.30,WeatherCatV1.10B1784,2013-01-11 23:07:00,
2013-01-11 18:12:00,47.6,46.8,29.99,WSW,249,2.0,2.0,97,0.00,,,0.30,WeatherCatV1.10B1784,2013-01-11 23:12:00,
2013-01-11 18:17:00,46.7,45.6,29.99,WSW,256,1.0,2.0,96,0.00,,,0.30,WeatherCatV1.10B1784,2013-01-11 23:17:00,
2013-01-11 18:22:00,45.8,44.4,29.99,SW,232,1.0,1.0,95,0.00,,,0.30,WeatherCatV1.10B1784,2013-01-11 23:22:00,
2013-01-11 18:27:00,45.6,44.5,29.99,West,262,1.0,1.0,96,0.00,,,0.30,WeatherCatV1.10B1784,2013-01-11 23:27:00,
2013-01-11 18:32:00,45.6,44.8,30.00,West,274,0.0,2.0,97,0.00,,,0.30,WeatherCatV1.10B1784,2013-01-11 23:32:00,
2013-01-11 18:37:00,46.3,45.5,30.00,WSW,248,1.0,2.0,97,0.00,,,0.30,WeatherCatV1.10B1784,2013-01-11 23:37:00,
2013-01-11 18:42:00,45.8,45.0,30.00,West,270,1.0,1.0,97,0.00,,,0.30,WeatherCatV1.10B1784,2013-01-11 23:42:00,
2013-01-11 18:47:00,47.0,46.2,30.00,WSW,257,2.0,3.0,97,0.00,,,0.30,WeatherCatV1.10B1784,2013-01-11 23:47:00,
2013-01-11 18:52:00,46.7,45.9,30.00,WSW,256,1.0,1.0,97,0.00,,,0.30,WeatherCatV1.10B1784,2013-01-11 23:52:00,
2013-01-11 18:57:00,47.0,46.2,30.00,West,279,2.0,3.0,97,0.00,,,0.30,WeatherCatV1.10B1784,2013-01-11 23:57:00,
2013-01-11 19:02:00,47.6,47.1,30.00,West,264,1.0,3.0,98,0.00,,,0.30,WeatherCatV1.10B1784,2013-01-12 00:02:00,
2013-01-11 19:07:00,48.1,47.6,30.00,West,262,1.0,2.0,98,0.00,,,0.30,WeatherCatV1.10B1784,2013-01-12 00:07:00,
2013-01-11 19:12:00,48.3,47.8,30.00,South,188,0.0,1.0,98,0.00,,,0.30,WeatherCatV1.10B1784,2013-01-12 00:12:00,
2013-01-11 19:17:00,47.3,46.5,30.00,WSW,242,0.0,0.0,97,0.00,,,0.30,WeatherCatV1.10B1784,2013-01-12 00:17:00,
2013-01-11 19:22:00,46.4,45.3,30.00,WSW,242,0.0,1.0,96,0.00,,,0.30,WeatherCatV1.10B1784,2013-01-12 00:22:00,
2013-01-11 19:27:00,45.1,43.8,30.00,SW,225,0.0,2.0,95,0.00,,,0.30,WeatherCatV1.10B1784,2013-01-12 00:27:00,
2013-01-11 19:32:00,44.5,43.4,30.00,SW,232,0.0,2.0,96,0.00,,,0.30,WeatherCatV1.10B1784,2013-01-12 00:32:00,
2013-01-11 19:37:00,44.4,43.3,30.00,SW,232,0.0,1.0,96,0.00,,,0.30,WeatherCatV1.10B1784,2013-01-12 00:37:00,
2013-01-11 19:42:00,43.8,42.7,30.00,SW,232,0.0,0.0,96,0.00,,,0.30,WeatherCatV1.10B1784,2013-01-12 00:42:00,
2013-01-11 19:47:00,43.3,42.2,30.01,SW,232,0.0,1.0,96,0.00,,,0.30,WeatherCatV1.10B1784,2013-01-12 00:47:00,
2013-01-11 19:52:00,43.4,42.6,30.00,WSW,238,1.0,1.0,97,0.00,,,0.30,WeatherCatV1.10B1784,2013-01-12 00:52:00,
2013-01-11 19:57:00,43.5,42.7,30.01,WSW,246,0.0,1.0,97,0.00,,,0.30,WeatherCatV1.10B1784,2013-01-12 00:57:00,
2013-01-11 20:02:00,43.3,42.5,30.00,WSW,250,0.0,0.0,97,0.00,,,0.30,WeatherCatV1.10B1784,2013-01-12 01:02:00,
2013-01-11 20:07:00,42.9,42.1,30.00,WSW,252,0.0,1.0,97,0.00,,,0.30,WeatherCatV1.10B1784,2013-01-12 01:07:00,
2013-01-11 20:12:00,43.1,42.3,30.00,WSW,246,0.0,0.0,97,0.00,,,0.30,WeatherCatV1.10B1784,2013-01-12 01:12:00,
2013-01-11 20:17:00,42.8,42.0,30.01,WSW,246,0.0,0.0,97,0.00,,,0.30,WeatherCatV1.10B1784,2013-01-12 01:17:00,
2013-01-11 20:22:00,42.7,41.9,30.01,WSW,238,1.0,1.0,97,0.00,,,0.30,WeatherCatV1.10B1784,2013-01-12 01:22:00,
2013-01-11 20:27:00,42.2,41.4,30.01,WSW,241,0.0,1.0,97,0.00,,,0.30,WeatherCatV1.10B1784,2013-01-12 01:27:00,
2013-01-11 20:32:00,42.4,41.6,30.01,WSW,240,0.0,1.0,97,0.00,,,0.30,WeatherCatV1.10B1784,2013-01-12 01:32:00,
2013-01-11 20:37:00,42.7,41.9,30.01,WSW,240,0.0,0.0,97,0.00,,,0.30,WeatherCatV1.10B1784,2013-01-12 01:37:00,
2013-01-11 20:42:00,42.3,41.5,30.01,WSW,240,0.0,1.0,97,0.00,,,0.30,WeatherCatV1.10B1784,2013-01-12 01:42:00,
2013-01-11 20:47:00,42.0,41.2,30.01,WSW,240,0.0,0.0,97,0.00,,,0.30,WeatherCatV1.10B1784,2013-01-12 01:47:00,
2013-01-11 20:52:00,41.5,40.7,30.01,WSW,240,0.0,0.0,97,0.00,,,0.30,WeatherCatV1.10B1784,2013-01-12 01:52:00,
2013-01-11 20:57:00,41.5,40.7,30.01,WSW,240,0.0,0.0,97,0.00,,,0.30,WeatherCatV1.10B1784,2013-01-12 01:57:00,
2013-01-11 21:02:00,41.5,40.7,30.01,WSW,241,0.0,0.0,97,0.00,,,0.30,WeatherCatV1.10B1784,2013-01-12 02:02:00,
2013-01-11 21:07:00,41.3,40.5,30.01,WSW,240,0.0,0.0,97,0.00,,,0.30,WeatherCatV1.10B1784,2013-01-12 02:07:00,
2013-01-11 21:12:00,41.1,40.3,30.02,WSW,240,0.0,1.0,97,0.00,,,0.30,WeatherCatV1.10B1784,2013-01-12 02:12:00,
2013-01-11 21:17:00,40.8,40.0,30.01,WSW,241,0.0,0.0,97,0.00,,,0.30,WeatherCatV1.10B1784,2013-01-12 02:17:00,
2013-01-11 21:22:00,40.5,39.7,30.02,WSW,240,0.0,0.0,97,0.00,,,0.30,WeatherCatV1.10B1784,2013-01-12 02:22:00,
2013-01-11 21:27:00,40.3,39.5,30.01,WSW,240,0.0,0.0,97,0.00,,,0.30,WeatherCatV1.10B1784,2013-01-12 02:27:00,
2013-01-11 21:32:00,39.7,38.9,30.01,WSW,240,0.0,0.0,97,0.00,,,0.30,WeatherCatV1.10B1784,2013-01-12 02:32:00,
2013-01-11 21:37:00,39.3,38.5,30.02,WSW,240,0.0,0.0,97,0.00,,,0.30,WeatherCatV1.10B1784,2013-01-12 02:37:00,
2013-01-11 21:42:00,39.0,38.2,30.01,WSW,241,0.0,0.0,97,0.00,,,0.30,WeatherCatV1.10B1784,2013-01-12 02:42:00,
2013-01-11 21:47:00,38.8,38.0,30.01,WSW,240,0.0,0.0,97,0.00,,,0.30,WeatherCatV1.10B1784,2013-01-12 02:47:00,
2013-01-11 21:52:00,38.6,37.8,30.02,WSW,240,0.0,0.0,97,0.00,,,0.30,WeatherCatV1.10B1784,2013-01-12 02:52:00,
2013-01-11 21:57:00,38.4,37.6,30.02,WSW,240,0.0,0.0,97,0.00,,,0.30,WeatherCatV1.10B1784,2013-01-12 02:57:00,
2013-01-11 22:02:00,38.4,37.6,30.02,WSW,241,0.0,0.0,97,0.00,,,0.30,WeatherCatV1.10B1784,2013-01-12 03:02:00,
2013-01-11 22:07:00,38.3,37.5,30.02,WSW,240,0.0,0.0,97,0.00,,,0.30,WeatherCatV1.10B1784,2013-01-12 03:07:00,
2013-01-11 22:12:00,38.1,37.3,30.03,WSW,240,0.0,0.0,97,0.00,,,0.30,WeatherCatV1.10B1784,2013-01-12 03:12:00,
2013-01-11 22:17:00,38.6,37.8,30.03,WSW,241,0.0,0.0,97,0.00,,,0.30,WeatherCatV1.10B1784,2013-01-12 03:17:00,
2013-01-11 22:22:00,38.5,37.7,30.03,WSW,240,0.0,0.0,97,0.00,,,0.30,WeatherCatV1.10B1784,2013-01-12 03:22:00,
2013-01-11 22:27:00,38.4,37.6,30.02,WSW,240,0.0,0.0,97,0.00,,,0.30,WeatherCatV1.10B1784,2013-01-12 03:27:00,
2013-01-11 22:32:00,38.2,37.4,30.03,WSW,240,0.0,0.0,97,0.00,,,0.30,WeatherCatV1.10B1784,2013-01-12 03:32:00,
2013-01-11 22:37:00,38.0,37.2,30.02,SSW,198,0.0,1.0,97,0.00,,,0.30,WeatherCatV1.10B1784,2013-01-12 03:37:00,
2013-01-11 22:42:00,37.8,37.0,30.02,SSW,198,0.0,0.0,97,0.00,,,0.30,WeatherCatV1.10B1784,2013-01-12 03:42:00,
2013-01-11 22:47:00,37.8,37.0,30.02,SSW,198,0.0,0.0,97,0.00,,,0.30,WeatherCatV1.10B1784,2013-01-12 03:47:00,
2013-01-11 22:52:00,37.7,36.9,30.02,SW,222,1.0,1.0,97,0.00,,,0.30,WeatherCatV1.10B1784,2013-01-12 03:52:00,
2013-01-11 22:57:00,37.9,37.1,30.02,West,260,0.0,2.0,97,0.00,,,0.30,WeatherCatV1.10B1784,2013-01-12 03:57:00,
2013-01-11 23:02:00,37.9,37.1,30.02,WSW,257,0.0,1.0,97,0.00,,,0.30,WeatherCatV1.10B1784,2013-01-12 04:02:00,
2013-01-11 23:07:00,38.4,37.9,30.02,WSW,248,0.0,0.0,98,0.00,,,0.30,WeatherCatV1.10B1784,2013-01-12 04:07:00,
2013-01-11 23:12:00,38.2,37.4,30.02,WSW,248,0.0,0.0,97,0.00,,,0.30,WeatherCatV1.10B1784,2013-01-12 04:12:00,
2013-01-11 23:17:00,37.9,37.1,30.02,WSW,248,0.0,1.0,97,0.00,,,0.30,WeatherCatV1.10B1784,2013-01-12 04:17:00,
2013-01-11 23:22:00,37.5,36.7,30.02,ESE,103,0.0,1.0,97,0.00,,,0.30,WeatherCatV1.10B1784,2013-01-12 04:22:00,
2013-01-11 23:27:00,37.6,36.8,30.02,ESE,103,0.0,0.0,97,0.00,,,0.30,WeatherCatV1.10B1784,2013-01-12 04:27:00,
2013-01-11 23:32:00,37.7,36.9,30.02,ESE,103,0.0,0.0,97,0.00,,,0.30,WeatherCatV1.10B1784,2013-01-12 04:32:00,
2013-01-11 23:37:00,37.8,37.0,30.02,ESE,103,0.0,1.0,97,0.00,,,0.30,WeatherCatV1.10B1784,2013-01-12 04:37:00,
2013-01-11 23:42:00,37.7,36.9,30.02,ESE,103,0.0,0.0,97,0.00,,,0.30,WeatherCatV1.10B1784,2013-01-12 04:42:00,
2013-01-11 23:47:00,38.0,37.2,30.02,ESE,103,0.0,0.0,97,0.00,,,0.30,WeatherCatV1.10B1784,2013-01-12 04:47:00,
2013-01-11 23:52:00,38.1,37.3,30.02,ESE,103,0.0,0.0,97,0.00,,,0.30,WeatherCatV1.10B1784,2013-01-12 04:52:00,
2013-01-11 23:57:00,38.2,37.4,30.02,East,94,0.0,0.0,97,0.00,,,0.30,WeatherCatV1.10B1784,2013-01-12 04:57:00,